createdAt,value
2023-02-19T00:01:11.661Z,16
2023-02-19T00:31:14.336Z,16.1
2023-02-19T01:01:14.967Z,16.1
2023-02-19T01:31:15.741Z,16.2
2023-02-19T02:01:16.255Z,16.2
2023-02-19T02:31:26.733Z,16.1
2023-02-19T03:01:27.313Z,16.1
2023-02-19T03:31:38.355Z,16.1
2023-02-19T04:01:39.237Z,16.1
2023-02-19T04:31:49.666Z,16.1
2023-02-19T05:01:50.241Z,16.1
2023-02-19T05:31:51.327Z,16.1
2023-02-19T06:01:51.797Z,16.1
2023-02-19T06:31:52.880Z,16.1
2023-02-19T07:01:53.389Z,16.1
2023-02-19T07:31:54.000Z,16.1
2023-02-19T08:01:54.957Z,16.1
2023-02-19T08:31:55.421Z,16.1
2023-02-19T09:01:55.917Z,16.1
2023-02-19T09:31:56.835Z,15.6
2023-02-19T10:02:07.237Z,15.7
2023-02-19T10:32:07.675Z,15.7
2023-02-19T11:02:18.347Z,15.7
2023-02-19T11:32:18.886Z,15.7
2023-02-19T12:02:19.929Z,15.7
2023-02-19T12:32:20.337Z,15.7
2023-02-19T13:02:21.387Z,15.7
2023-02-19T13:32:21.917Z,15.7
2023-02-19T14:02:22.647Z,15.7
2023-02-19T14:32:23.259Z,15.7
2023-02-19T15:02:23.671Z,15.7
2023-02-19T15:32:24.315Z,15.7
2023-02-19T16:02:27.735Z,15.7
2023-02-19T16:32:38.517Z,15.6
2023-02-19T17:02:38.932Z,15.6
2023-02-19T17:32:49.797Z,15.6
2023-02-19T18:02:50.202Z,15.6
2023-02-19T18:32:50.931Z,15.6
2023-02-19T19:02:51.905Z,15.6
2023-02-19T19:32:53.803Z,15.5
2023-02-19T20:02:54.679Z,15.5
2023-02-19T20:32:55.605Z,15.5
2023-02-19T21:02:56.491Z,15.5
2023-02-19T21:32:56.945Z,15.3
2023-02-19T22:02:57.423Z,15.6
2023-02-19T22:32:57.846Z,15.8
2023-02-19T23:02:58.278Z,15.9
2023-02-19T23:32:59.148Z,15.9
